Ashton, Illinois
Current Conditions -  °F | °C
As of 1:15 AM on Friday 28 Nov 2014 (Local Time) from KRPJ Reporting Station
Overcast Overcast  
Wind Chill: -11°   Ceiling: 9000
Heat Index: -11°   Visibility: 10mi
Dew Point: -13°   Wind: 0mph
Humidity: 84%   Direction: NA
Pressure: 30.37"   Gusts: NA
Location:  41.87°N, 89.22°W
Report Text: KRPJ 280715Z AUTO 00000KT 10SM OVC090 M10/M13 A3037 RMK AO2 T11051128
Loading
Personal Weather Stations






























Interactive Weather Map New forecast layout! Learn more

10-Day Weather Forecast

Advertisements
Track Severe Weather on mobile